sensor_id;sensor_type;location;lat;lon;timestamp;temperature;humidity
10245;DHT22;5167;52.164;10.530;2023-10-19T00:00:34;10.50;29.50
10245;DHT22;5167;52.164;10.530;2023-10-19T00:03:02;10.40;29.60
10245;DHT22;5167;52.164;10.530;2023-10-19T00:05:32;10.40;30.20
10245;DHT22;5167;52.164;10.530;2023-10-19T00:07:59;10.40;30.70
10245;DHT22;5167;52.164;10.530;2023-10-19T00:10:26;10.40;31.30
10245;DHT22;5167;52.164;10.530;2023-10-19T00:12:58;10.40;31.80
10245;DHT22;5167;52.164;10.530;2023-10-19T00:15:30;10.40;32.00
10245;DHT22;5167;52.164;10.530;2023-10-19T00:17:58;10.30;33.10
10245;DHT22;5167;52.164;10.530;2023-10-19T00:20:31;10.30;33.10
10245;DHT22;5167;52.164;10.530;2023-10-19T00:23:15;10.30;33.80
10245;DHT22;5167;52.164;10.530;2023-10-19T00:25:44;10.20;34.40
10245;DHT22;5167;52.164;10.530;2023-10-19T00:28:15;10.20;34.80
10245;DHT22;5167;52.164;10.530;2023-10-19T00:30:42;10.20;35.60
10245;DHT22;5167;52.164;10.530;2023-10-19T00:33:08;10.20;36.10
10245;DHT22;5167;52.164;10.530;2023-10-19T00:35:48;10.20;36.10
10245;DHT22;5167;52.164;10.530;2023-10-19T00:38:24;10.10;36.90
10245;DHT22;5167;52.164;10.530;2023-10-19T00:40:54;10.10;37.80
10245;DHT22;5167;52.164;10.530;2023-10-19T00:43:30;10.10;38.70
10245;DHT22;5167;52.164;10.530;2023-10-19T00:46:08;10.00;39.30
10245;DHT22;5167;52.164;10.530;2023-10-19T00:48:47;10.00;39.90
10245;DHT22;5167;52.164;10.530;2023-10-19T00:51:14;10.00;40.30
10245;DHT22;5167;52.164;10.530;2023-10-19T00:53:54;10.00;41.00
10245;DHT22;5167;52.164;10.530;2023-10-19T00:56:21;10.00;41.80
10245;DHT22;5167;52.164;10.530;2023-10-19T00:58:52;10.00;42.60
10245;DHT22;5167;52.164;10.530;2023-10-19T01:01:28;9.90;43.50
10245;DHT22;5167;52.164;10.530;2023-10-19T01:03:54;9.90;44.70
10245;DHT22;5167;52.164;10.530;2023-10-19T01:06:25;9.90;43.70
10245;DHT22;5167;52.164;10.530;2023-10-19T01:08:52;9.90;44.40
10245;DHT22;5167;52.164;10.530;2023-10-19T01:11:19;9.90;45.00
10245;DHT22;5167;52.164;10.530;2023-10-19T01:13:47;9.90;45.30
10245;DHT22;5167;52.164;10.530;2023-10-19T01:16:15;9.90;45.80
10245;DHT22;5167;52.164;10.530;2023-10-19T01:18:46;9.90;46.20
10245;DHT22;5167;52.164;10.530;2023-10-19T01:21:12;9.90;46.80
10245;DHT22;5167;52.164;10.530;2023-10-19T01:23:38;9.80;47.10
10245;DHT22;5167;52.164;10.530;2023-10-19T01:26:04;9.90;47.80
10245;DHT22;5167;52.164;10.530;2023-10-19T01:28:37;9.80;47.90
10245;DHT22;5167;52.164;10.530;2023-10-19T01:31:09;9.90;48.70
10245;DHT22;5167;52.164;10.530;2023-10-19T01:33:54;9.80;49.30
10245;DHT22;5167;52.164;10.530;2023-10-19T01:36:21;9.90;49.30
10245;DHT22;5167;52.164;10.530;2023-10-19T01:38:47;9.90;49.60
10245;DHT22;5167;52.164;10.530;2023-10-19T01:41:13;9.90;50.10
10245;DHT22;5167;52.164;10.530;2023-10-19T01:43:43;9.90;50.70
10245;DHT22;5167;52.164;10.530;2023-10-19T01:46:09;9.90;51.20
10245;DHT22;5167;52.164;10.530;2023-10-19T01:48:39;9.90;51.10
10245;DHT22;5167;52.164;10.530;2023-10-19T01:51:07;9.80;51.20
10245;DHT22;5167;52.164;10.530;2023-10-19T01:53:39;9.90;52.50
10245;DHT22;5167;52.164;10.530;2023-10-19T01:56:08;9.80;53.10
10245;DHT22;5167;52.164;10.530;2023-10-19T01:58:38;9.80;53.40
10245;DHT22;5167;52.164;10.530;2023-10-19T02:01:05;9.90;54.00
10245;DHT22;5167;52.164;10.530;2023-10-19T02:03:41;9.80;54.10
10245;DHT22;5167;52.164;10.530;2023-10-19T02:06:08;9.80;55.30
10245;DHT22;5167;52.164;10.530;2023-10-19T02:08:50;9.80;55.50
10245;DHT22;5167;52.164;10.530;2023-10-19T02:11:21;9.80;56.90
10245;DHT22;5167;52.164;10.530;2023-10-19T02:13:48;9.80;57.10
10245;DHT22;5167;52.164;10.530;2023-10-19T02:16:15;9.70;57.40
10245;DHT22;5167;52.164;10.530;2023-10-19T02:18:44;9.70;58.60
10245;DHT22;5167;52.164;10.530;2023-10-19T02:21:10;9.70;60.10
10245;DHT22;5167;52.164;10.530;2023-10-19T02:23:39;9.60;60.60
10245;DHT22;5167;52.164;10.530;2023-10-19T02:26:07;9.60;62.10
10245;DHT22;5167;52.164;10.530;2023-10-19T02:28:33;9.60;64.10
10245;DHT22;5167;52.164;10.530;2023-10-19T02:31:03;9.60;65.60
10245;DHT22;5167;52.164;10.530;2023-10-19T02:33:51;9.60;66.80
10245;DHT22;5167;52.164;10.530;2023-10-19T02:36:18;9.60;67.50
10245;DHT22;5167;52.164;10.530;2023-10-19T02:38:47;9.60;69.00
10245;DHT22;5167;52.164;10.530;2023-10-19T02:41:18;9.60;69.20
10245;DHT22;5167;52.164;10.530;2023-10-19T02:43:45;9.60;70.40
10245;DHT22;5167;52.164;10.530;2023-10-19T02:46:26;9.60;72.00
10245;DHT22;5167;52.164;10.530;2023-10-19T02:48:52;9.60;73.90
10245;DHT22;5167;52.164;10.530;2023-10-19T02:51:17;9.60;75.70
10245;DHT22;5167;52.164;10.530;2023-10-19T02:53:44;9.60;77.60
10245;DHT22;5167;52.164;10.530;2023-10-19T02:56:14;9.60;79.70
10245;DHT22;5167;52.164;10.530;2023-10-19T02:58:43;9.50;81.20
10245;DHT22;5167;52.164;10.530;2023-10-19T03:01:15;9.60;84.00
10245;DHT22;5167;52.164;10.530;2023-10-19T03:03:43;9.60;85.40
10245;DHT22;5167;52.164;10.530;2023-10-19T03:06:09;9.60;87.20
10245;DHT22;5167;52.164;10.530;2023-10-19T03:08:35;9.50;89.30
10245;DHT22;5167;52.164;10.530;2023-10-19T03:11:01;9.50;90.70
10245;DHT22;5167;52.164;10.530;2023-10-19T03:13:29;9.50;93.10
10245;DHT22;5167;52.164;10.530;2023-10-19T03:15:57;9.40;94.60
10245;DHT22;5167;52.164;10.530;2023-10-19T03:18:23;9.50;96.20
10245;DHT22;5167;52.164;10.530;2023-10-19T03:20:51;9.50;96.80
10245;DHT22;5167;52.164;10.530;2023-10-19T03:23:16;9.40;96.70
10245;DHT22;5167;52.164;10.530;2023-10-19T03:25:42;9.40;99.30
10245;DHT22;5167;52.164;10.530;2023-10-19T03:28:26;9.30;99.90
10245;DHT22;5167;52.164;10.530;2023-10-19T03:30:52;9.30;99.90
10245;DHT22;5167;52.164;10.530;2023-10-19T03:33:20;9.30;99.90
10245;DHT22;5167;52.164;10.530;2023-10-19T03:35:46;9.20;99.90
10245;DHT22;5167;52.164;10.530;2023-10-19T03:38:12;9.20;99.90
10245;DHT22;5167;52.164;10.530;2023-10-19T03:40:42;9.20;99.90
10245;DHT22;5167;52.164;10.530;2023-10-19T03:43:16;9.30;99.90
10245;DHT22;5167;52.164;10.530;2023-10-19T03:45:44;9.20;99.90
10245;DHT22;5167;52.164;10.530;2023-10-19T03:48:18;9.20;99.90
10245;DHT22;5167;52.164;10.530;2023-10-19T03:50:50;9.20;99.90
10245;DHT22;5167;52.164;10.530;2023-10-19T03:53:17;9.30;99.90
10245;DHT22;5167;52.164;10.530;2023-10-19T03:55:43;9.30;99.90
10245;DHT22;5167;52.164;10.530;2023-10-19T03:58:09;9.30;99.90
10245;DHT22;5167;52.164;10.530;2023-10-19T04:00:37;9.30;99.90
10245;DHT22;5167;52.164;10.530;2023-10-19T04:03:03;9.20;99.90
10245;DHT22;5167;52.164;10.530;2023-10-19T04:05:28;9.30;99.90
10245;DHT22;5167;52.164;10.530;2023-10-19T04:07:56;9.20;99.90
10245;DHT22;5167;52.164;10.530;2023-10-19T04:10:22;9.30;99.90
10245;DHT22;5167;52.164;10.530;2023-10-19T04:13:00;9.30;99.90
10245;DHT22;5167;52.164;10.530;2023-10-19T04:15:27;9.30;99.90
10245;DHT22;5167;52.164;10.530;2023-10-19T04:17:54;9.20;99.90
10245;DHT22;5167;52.164;10.530;2023-10-19T04:20:23;9.20;99.90
10245;DHT22;5167;52.164;10.530;2023-10-19T04:22:54;9.30;99.90
10245;DHT22;5167;52.164;10.530;2023-10-19T04:25:20;9.20;99.90
10245;DHT22;5167;52.164;10.530;2023-10-19T04:27:47;9.20;99.90
10245;DHT22;5167;52.164;10.530;2023-10-19T04:30:14;9.20;99.90
10245;DHT22;5167;52.164;10.530;2023-10-19T04:32:44;9.00;99.90
10245;DHT22;5167;52.164;10.530;2023-10-19T04:35:10;9.10;99.90
10245;DHT22;5167;52.164;10.530;2023-10-19T04:37:36;9.00;99.90
10245;DHT22;5167;52.164;10.530;2023-10-19T04:40:02;9.10;99.90
10245;DHT22;5167;52.164;10.530;2023-10-19T04:42:28;9.00;99.90
10245;DHT22;5167;52.164;10.530;2023-10-19T04:44:56;9.00;99.90
10245;DHT22;5167;52.164;10.530;2023-10-19T04:47:22;9.00;99.90
10245;DHT22;5167;52.164;10.530;2023-10-19T04:49:48;9.10;99.90
10245;DHT22;5167;52.164;10.530;2023-10-19T04:52:14;9.10;99.90
10245;DHT22;5167;52.164;10.530;2023-10-19T04:54:39;9.00;99.90
10245;DHT22;5167;52.164;10.530;2023-10-19T04:57:05;9.10;99.90
10245;DHT22;5167;52.164;10.530;2023-10-19T04:59:30;9.10;99.90
10245;DHT22;5167;52.164;10.530;2023-10-19T05:01:59;9.10;99.90
10245;DHT22;5167;52.164;10.530;2023-10-19T05:04:28;9.10;99.90
10245;DHT22;5167;52.164;10.530;2023-10-19T05:06:54;9.00;99.90
10245;DHT22;5167;52.164;10.530;2023-10-19T05:09:20;9.20;99.90
10245;DHT22;5167;52.164;10.530;2023-10-19T05:11:46;9.10;99.90
10245;DHT22;5167;52.164;10.530;2023-10-19T05:14:14;9.10;99.90
10245;DHT22;5167;52.164;10.530;2023-10-19T05:16:40;9.10;99.90
10245;DHT22;5167;52.164;10.530;2023-10-19T05:19:06;9.20;99.90
10245;DHT22;5167;52.164;10.530;2023-10-19T05:21:31;9.20;99.90
10245;DHT22;5167;52.164;10.530;2023-10-19T05:23:59;9.20;99.90
10245;DHT22;5167;52.164;10.530;2023-10-19T05:26:26;9.20;99.90
10245;DHT22;5167;52.164;10.530;2023-10-19T05:28:51;9.20;99.90
10245;DHT22;5167;52.164;10.530;2023-10-19T05:31:17;9.20;99.90
10245;DHT22;5167;52.164;10.530;2023-10-19T05:33:42;9.30;99.90
10245;DHT22;5167;52.164;10.530;2023-10-19T05:36:08;9.20;99.90
10245;DHT22;5167;52.164;10.530;2023-10-19T05:38:34;9.30;99.90
10245;DHT22;5167;52.164;10.530;2023-10-19T05:40:59;9.20;99.90
10245;DHT22;5167;52.164;10.530;2023-10-19T05:43:26;9.20;99.90
10245;DHT22;5167;52.164;10.530;2023-10-19T05:45:51;9.20;99.90
10245;DHT22;5167;52.164;10.530;2023-10-19T05:48:17;9.30;99.90
10245;DHT22;5167;52.164;10.530;2023-10-19T05:50:43;9.40;99.90
10245;DHT22;5167;52.164;10.530;2023-10-19T05:53:08;9.20;99.90
10245;DHT22;5167;52.164;10.530;2023-10-19T05:55:34;9.20;99.90
10245;DHT22;5167;52.164;10.530;2023-10-19T05:58:01;9.40;99.90
10245;DHT22;5167;52.164;10.530;2023-10-19T06:00:30;9.50;99.90
10245;DHT22;5167;52.164;10.530;2023-10-19T06:02:56;9.30;99.90
10245;DHT22;5167;52.164;10.530;2023-10-19T06:05:23;9.30;99.90
10245;DHT22;5167;52.164;10.530;2023-10-19T06:07:50;9.30;99.90
10245;DHT22;5167;52.164;10.530;2023-10-19T06:10:20;9.30;99.90
10245;DHT22;5167;52.164;10.530;2023-10-19T06:12:47;9.30;99.90
10245;DHT22;5167;52.164;10.530;2023-10-19T06:15:14;9.30;99.90
10245;DHT22;5167;52.164;10.530;2023-10-19T06:17:42;9.30;99.90
10245;DHT22;5167;52.164;10.530;2023-10-19T06:20:10;9.30;99.90
10245;DHT22;5167;52.164;10.530;2023-10-19T06:22:48;9.20;99.90
10245;DHT22;5167;52.164;10.530;2023-10-19T06:25:18;9.20;99.90
10245;DHT22;5167;52.164;10.530;2023-10-19T06:27:44;9.20;99.90
10245;DHT22;5167;52.164;10.530;2023-10-19T06:30:10;9.30;99.90
10245;DHT22;5167;52.164;10.530;2023-10-19T06:32:36;9.30;99.90
10245;DHT22;5167;52.164;10.530;2023-10-19T06:35:02;9.20;99.90
10245;DHT22;5167;52.164;10.530;2023-10-19T06:37:28;9.30;99.90
10245;DHT22;5167;52.164;10.530;2023-10-19T06:39:53;9.30;99.90
10245;DHT22;5167;52.164;10.530;2023-10-19T06:42:19;9.30;99.90
10245;DHT22;5167;52.164;10.530;2023-10-19T06:44:44;9.30;99.90
10245;DHT22;5167;52.164;10.530;2023-10-19T06:47:11;9.30;99.90
10245;DHT22;5167;52.164;10.530;2023-10-19T06:49:37;9.20;99.90
10245;DHT22;5167;52.164;10.530;2023-10-19T06:52:03;9.30;99.90
10245;DHT22;5167;52.164;10.530;2023-10-19T06:54:31;9.30;99.90
10245;DHT22;5167;52.164;10.530;2023-10-19T06:56:57;9.30;99.90
10245;DHT22;5167;52.164;10.530;2023-10-19T06:59:22;9.30;99.90
10245;DHT22;5167;52.164;10.530;2023-10-19T07:01:49;9.40;99.90
10245;DHT22;5167;52.164;10.530;2023-10-19T07:04:15;9.30;99.90
10245;DHT22;5167;52.164;10.530;2023-10-19T07:06:41;9.30;99.90
10245;DHT22;5167;52.164;10.530;2023-10-19T07:09:06;9.40;99.90
10245;DHT22;5167;52.164;10.530;2023-10-19T07:11:32;9.40;99.90
10245;DHT22;5167;52.164;10.530;2023-10-19T07:13:59;9.40;99.90
10245;DHT22;5167;52.164;10.530;2023-10-19T07:16:25;9.40;99.90
10245;DHT22;5167;52.164;10.530;2023-10-19T07:18:52;9.40;99.90
10245;DHT22;5167;52.164;10.530;2023-10-19T07:21:18;9.40;99.90
10245;DHT22;5167;52.164;10.530;2023-10-19T07:23:44;9.40;99.90
10245;DHT22;5167;52.164;10.530;2023-10-19T07:26:11;9.50;99.90
10245;DHT22;5167;52.164;10.530;2023-10-19T07:28:39;9.50;99.90
10245;DHT22;5167;52.164;10.530;2023-10-19T07:31:05;9.40;99.90
10245;DHT22;5167;52.164;10.530;2023-10-19T07:33:35;9.50;99.90
10245;DHT22;5167;52.164;10.530;2023-10-19T07:36:03;9.60;99.90
10245;DHT22;5167;52.164;10.530;2023-10-19T07:38:33;9.50;99.90
10245;DHT22;5167;52.164;10.530;2023-10-19T07:41:00;9.60;99.90
10245;DHT22;5167;52.164;10.530;2023-10-19T07:43:26;9.60;99.90
10245;DHT22;5167;52.164;10.530;2023-10-19T07:45:52;9.60;99.90
10245;DHT22;5167;52.164;10.530;2023-10-19T07:48:18;9.60;99.90
10245;DHT22;5167;52.164;10.530;2023-10-19T07:50:44;9.50;99.90
10245;DHT22;5167;52.164;10.530;2023-10-19T07:53:09;9.70;99.90
10245;DHT22;5167;52.164;10.530;2023-10-19T07:55:35;9.60;99.90
10245;DHT22;5167;52.164;10.530;2023-10-19T07:58:01;9.60;99.90
10245;DHT22;5167;52.164;10.530;2023-10-19T08:00:31;9.60;99.90
10245;DHT22;5167;52.164;10.530;2023-10-19T08:02:59;9.60;99.90
10245;DHT22;5167;52.164;10.530;2023-10-19T08:05:25;9.60;99.90
10245;DHT22;5167;52.164;10.530;2023-10-19T08:07:51;9.70;99.90
10245;DHT22;5167;52.164;10.530;2023-10-19T08:10:18;9.60;99.90
10245;DHT22;5167;52.164;10.530;2023-10-19T08:12:46;9.60;99.90
10245;DHT22;5167;52.164;10.530;2023-10-19T08:15:15;9.60;99.90
10245;DHT22;5167;52.164;10.530;2023-10-19T08:17:43;9.60;99.90
10245;DHT22;5167;52.164;10.530;2023-10-19T08:20:10;9.60;99.90
10245;DHT22;5167;52.164;10.530;2023-10-19T08:22:42;9.60;99.90
10245;DHT22;5167;52.164;10.530;2023-10-19T08:25:08;9.60;99.90
10245;DHT22;5167;52.164;10.530;2023-10-19T08:27:38;9.50;99.90
10245;DHT22;5167;52.164;10.530;2023-10-19T08:30:06;9.60;99.90
10245;DHT22;5167;52.164;10.530;2023-10-19T08:32:34;9.60;99.90
10245;DHT22;5167;52.164;10.530;2023-10-19T08:35:01;9.60;99.90
10245;DHT22;5167;52.164;10.530;2023-10-19T08:37:27;9.70;99.90
10245;DHT22;5167;52.164;10.530;2023-10-19T08:39:53;9.70;99.90
10245;DHT22;5167;52.164;10.530;2023-10-19T08:42:19;9.70;99.90
10245;DHT22;5167;52.164;10.530;2023-10-19T08:44:45;9.80;99.90
10245;DHT22;5167;52.164;10.530;2023-10-19T08:47:11;9.80;99.90
10245;DHT22;5167;52.164;10.530;2023-10-19T08:49:37;9.80;99.90
10245;DHT22;5167;52.164;10.530;2023-10-19T08:52:03;9.80;99.90
10245;DHT22;5167;52.164;10.530;2023-10-19T08:54:30;9.80;99.90
10245;DHT22;5167;52.164;10.530;2023-10-19T08:56:57;9.80;99.90
10245;DHT22;5167;52.164;10.530;2023-10-19T08:59:25;9.80;99.90
10245;DHT22;5167;52.164;10.530;2023-10-19T09:01:50;9.80;99.90
10245;DHT22;5167;52.164;10.530;2023-10-19T09:04:16;9.80;99.90
10245;DHT22;5167;52.164;10.530;2023-10-19T09:06:44;9.90;99.90
10245;DHT22;5167;52.164;10.530;2023-10-19T09:09:14;9.80;99.90
10245;DHT22;5167;52.164;10.530;2023-10-19T09:11:45;9.80;99.90
10245;DHT22;5167;52.164;10.530;2023-10-19T09:14:12;9.90;99.90
10245;DHT22;5167;52.164;10.530;2023-10-19T09:16:56;9.90;99.90
10245;DHT22;5167;52.164;10.530;2023-10-19T09:19:39;9.90;99.90
10245;DHT22;5167;52.164;10.530;2023-10-19T09:22:06;9.90;99.90
10245;DHT22;5167;52.164;10.530;2023-10-19T09:24:44;9.90;99.90
10245;DHT22;5167;52.164;10.530;2023-10-19T09:27:12;10.00;99.90
10245;DHT22;5167;52.164;10.530;2023-10-19T09:29:38;10.00;99.90
10245;DHT22;5167;52.164;10.530;2023-10-19T09:32:05;9.90;99.90
10245;DHT22;5167;52.164;10.530;2023-10-19T09:34:32;10.00;99.90
10245;DHT22;5167;52.164;10.530;2023-10-19T09:36:59;10.00;99.90
10245;DHT22;5167;52.164;10.530;2023-10-19T09:39:32;10.00;99.90
10245;DHT22;5167;52.164;10.530;2023-10-19T09:42:05;10.10;99.90
10245;DHT22;5167;52.164;10.530;2023-10-19T09:44:41;10.00;99.90
10245;DHT22;5167;52.164;10.530;2023-10-19T09:47:22;10.10;99.90
10245;DHT22;5167;52.164;10.530;2023-10-19T09:49:51;10.00;99.90
10245;DHT22;5167;52.164;10.530;2023-10-19T09:52:17;10.10;99.90
10245;DHT22;5167;52.164;10.530;2023-10-19T09:57:20;10.20;99.90
10245;DHT22;5167;52.164;10.530;2023-10-19T09:59:53;10.20;99.90
10245;DHT22;5167;52.164;10.530;2023-10-19T10:02:22;10.20;99.90
10245;DHT22;5167;52.164;10.530;2023-10-19T10:04:48;10.20;99.90
10245;DHT22;5167;52.164;10.530;2023-10-19T10:07:15;10.30;99.90
10245;DHT22;5167;52.164;10.530;2023-10-19T10:09:42;10.40;99.90
10245;DHT22;5167;52.164;10.530;2023-10-19T10:12:18;10.40;99.90
10245;DHT22;5167;52.164;10.530;2023-10-19T10:15:13;10.40;99.90
10245;DHT22;5167;52.164;10.530;2023-10-19T10:17:41;10.40;99.90
10245;DHT22;5167;52.164;10.530;2023-10-19T10:22:39;10.40;99.90
10245;DHT22;5167;52.164;10.530;2023-10-19T10:25:04;10.50;99.90
10245;DHT22;5167;52.164;10.530;2023-10-19T10:27:31;10.50;99.90
10245;DHT22;5167;52.164;10.530;2023-10-19T10:30:01;10.60;99.90
10245;DHT22;5167;52.164;10.530;2023-10-19T10:32:48;10.50;99.90
10245;DHT22;5167;52.164;10.530;2023-10-19T10:38:03;10.70;99.90
10245;DHT22;5167;52.164;10.530;2023-10-19T10:40:31;10.70;99.90
10245;DHT22;5167;52.164;10.530;2023-10-19T10:43:07;10.70;99.90
10245;DHT22;5167;52.164;10.530;2023-10-19T10:45:32;10.80;99.90
10245;DHT22;5167;52.164;10.530;2023-10-19T10:47:58;10.70;99.90
10245;DHT22;5167;52.164;10.530;2023-10-19T10:50:26;10.60;99.90
10245;DHT22;5167;52.164;10.530;2023-10-19T10:52:53;10.70;99.90
10245;DHT22;5167;52.164;10.530;2023-10-19T10:55:23;10.70;99.90
10245;DHT22;5167;52.164;10.530;2023-10-19T10:57:51;10.80;99.90
10245;DHT22;5167;52.164;10.530;2023-10-19T11:00:16;10.60;99.90
10245;DHT22;5167;52.164;10.530;2023-10-19T11:02:45;10.70;99.90
10245;DHT22;5167;52.164;10.530;2023-10-19T11:05:16;10.70;99.90
10245;DHT22;5167;52.164;10.530;2023-10-19T11:10:33;10.80;99.90
10245;DHT22;5167;52.164;10.530;2023-10-19T11:13:02;10.80;99.90
10245;DHT22;5167;52.164;10.530;2023-10-19T11:15:27;10.80;99.90
10245;DHT22;5167;52.164;10.530;2023-10-19T11:17:53;10.70;99.90
10245;DHT22;5167;52.164;10.530;2023-10-19T11:20:23;10.80;99.90
10245;DHT22;5167;52.164;10.530;2023-10-19T11:22:51;10.90;99.90
10245;DHT22;5167;52.164;10.530;2023-10-19T11:25:23;10.90;99.90
10245;DHT22;5167;52.164;10.530;2023-10-19T11:27:48;11.00;99.90
10245;DHT22;5167;52.164;10.530;2023-10-19T11:30:23;11.00;99.90
10245;DHT22;5167;52.164;10.530;2023-10-19T11:32:49;11.00;99.90
10245;DHT22;5167;52.164;10.530;2023-10-19T11:35:21;11.00;99.90
10245;DHT22;5167;52.164;10.530;2023-10-19T11:37:54;11.10;99.90
10245;DHT22;5167;52.164;10.530;2023-10-19T11:40:22;11.10;99.90
10245;DHT22;5167;52.164;10.530;2023-10-19T11:42:51;11.10;99.90
10245;DHT22;5167;52.164;10.530;2023-10-19T11:45:17;11.20;99.90
10245;DHT22;5167;52.164;10.530;2023-10-19T11:47:44;11.10;99.90
10245;DHT22;5167;52.164;10.530;2023-10-19T11:50:10;11.20;99.90
10245;DHT22;5167;52.164;10.530;2023-10-19T11:52:39;11.20;99.90
10245;DHT22;5167;52.164;10.530;2023-10-19T11:55:05;11.20;99.90
10245;DHT22;5167;52.164;10.530;2023-10-19T11:57:32;11.20;99.90
10245;DHT22;5167;52.164;10.530;2023-10-19T11:59:58;11.20;99.90
10245;DHT22;5167;52.164;10.530;2023-10-19T12:02:24;11.30;99.90
10245;DHT22;5167;52.164;10.530;2023-10-19T12:04:50;11.20;99.90
10245;DHT22;5167;52.164;10.530;2023-10-19T12:07:15;11.30;99.90
10245;DHT22;5167;52.164;10.530;2023-10-19T12:09:41;11.20;99.90
10245;DHT22;5167;52.164;10.530;2023-10-19T12:12:09;11.30;99.90
10245;DHT22;5167;52.164;10.530;2023-10-19T12:14:36;11.30;99.90
10245;DHT22;5167;52.164;10.530;2023-10-19T12:17:02;11.30;99.90
10245;DHT22;5167;52.164;10.530;2023-10-19T12:19:29;11.30;99.90
10245;DHT22;5167;52.164;10.530;2023-10-19T12:21:55;11.30;99.90
10245;DHT22;5167;52.164;10.530;2023-10-19T12:24:21;11.40;99.90
10245;DHT22;5167;52.164;10.530;2023-10-19T12:26:47;11.40;99.90
10245;DHT22;5167;52.164;10.530;2023-10-19T12:29:12;11.40;99.90
10245;DHT22;5167;52.164;10.530;2023-10-19T12:31:40;11.50;99.90
10245;DHT22;5167;52.164;10.530;2023-10-19T12:34:06;11.50;99.90
10245;DHT22;5167;52.164;10.530;2023-10-19T12:36:33;11.50;99.90
10245;DHT22;5167;52.164;10.530;2023-10-19T12:39:00;11.40;99.90
10245;DHT22;5167;52.164;10.530;2023-10-19T12:41:27;11.60;99.90
10245;DHT22;5167;52.164;10.530;2023-10-19T12:43:53;11.50;99.90
10245;DHT22;5167;52.164;10.530;2023-10-19T12:46:26;11.50;99.90
10245;DHT22;5167;52.164;10.530;2023-10-19T12:48:53;11.50;99.90
10245;DHT22;5167;52.164;10.530;2023-10-19T12:51:21;11.50;99.90
10245;DHT22;5167;52.164;10.530;2023-10-19T12:53:54;11.50;99.90
10245;DHT22;5167;52.164;10.530;2023-10-19T12:56:20;11.50;99.90
10245;DHT22;5167;52.164;10.530;2023-10-19T12:58:46;11.60;99.90
10245;DHT22;5167;52.164;10.530;2023-10-19T13:01:14;11.50;99.90
10245;DHT22;5167;52.164;10.530;2023-10-19T13:03:45;11.60;99.90
10245;DHT22;5167;52.164;10.530;2023-10-19T13:06:12;11.60;99.90
10245;DHT22;5167;52.164;10.530;2023-10-19T13:08:38;11.50;99.90
10245;DHT22;5167;52.164;10.530;2023-10-19T13:11:06;11.60;99.90
10245;DHT22;5167;52.164;10.530;2023-10-19T13:13:32;11.50;99.90
10245;DHT22;5167;52.164;10.530;2023-10-19T13:15:57;11.60;99.90
10245;DHT22;5167;52.164;10.530;2023-10-19T13:18:23;11.50;99.90
10245;DHT22;5167;52.164;10.530;2023-10-19T13:20:55;11.50;99.90
10245;DHT22;5167;52.164;10.530;2023-10-19T13:23:22;11.50;99.90
10245;DHT22;5167;52.164;10.530;2023-10-19T13:25:51;11.50;99.90
10245;DHT22;5167;52.164;10.530;2023-10-19T13:28:23;11.50;99.90
10245;DHT22;5167;52.164;10.530;2023-10-19T13:30:49;11.60;99.90
10245;DHT22;5167;52.164;10.530;2023-10-19T13:33:15;11.60;99.90
10245;DHT22;5167;52.164;10.530;2023-10-19T13:35:42;11.70;99.90
10245;DHT22;5167;52.164;10.530;2023-10-19T13:38:09;11.60;99.90
10245;DHT22;5167;52.164;10.530;2023-10-19T13:40:36;11.60;99.90
10245;DHT22;5167;52.164;10.530;2023-10-19T13:43:02;11.70;99.90
10245;DHT22;5167;52.164;10.530;2023-10-19T13:45:31;11.70;99.90
10245;DHT22;5167;52.164;10.530;2023-10-19T13:47:57;11.70;99.90
10245;DHT22;5167;52.164;10.530;2023-10-19T13:50:24;11.80;99.90
10245;DHT22;5167;52.164;10.530;2023-10-19T13:52:52;11.70;99.90
10245;DHT22;5167;52.164;10.530;2023-10-19T13:55:19;11.70;99.90
10245;DHT22;5167;52.164;10.530;2023-10-19T13:57:46;11.70;99.90
10245;DHT22;5167;52.164;10.530;2023-10-19T14:00:13;11.70;99.90
10245;DHT22;5167;52.164;10.530;2023-10-19T14:02:45;11.70;99.90
10245;DHT22;5167;52.164;10.530;2023-10-19T14:05:12;11.80;99.90
10245;DHT22;5167;52.164;10.530;2023-10-19T14:07:38;11.70;99.90
10245;DHT22;5167;52.164;10.530;2023-10-19T14:10:06;11.70;99.90
10245;DHT22;5167;52.164;10.530;2023-10-19T14:12:32;11.80;99.90
10245;DHT22;5167;52.164;10.530;2023-10-19T14:14:58;11.70;99.90
10245;DHT22;5167;52.164;10.530;2023-10-19T14:17:23;11.80;99.90
10245;DHT22;5167;52.164;10.530;2023-10-19T14:19:49;11.80;99.90
10245;DHT22;5167;52.164;10.530;2023-10-19T14:22:14;11.80;99.90
10245;DHT22;5167;52.164;10.530;2023-10-19T14:24:41;11.80;99.90
10245;DHT22;5167;52.164;10.530;2023-10-19T14:27:07;11.80;99.90
10245;DHT22;5167;52.164;10.530;2023-10-19T14:29:34;11.70;99.90
10245;DHT22;5167;52.164;10.530;2023-10-19T14:32:00;11.80;99.90
10245;DHT22;5167;52.164;10.530;2023-10-19T14:34:25;11.80;99.90
10245;DHT22;5167;52.164;10.530;2023-10-19T14:36:52;11.80;99.90
10245;DHT22;5167;52.164;10.530;2023-10-19T14:39:18;11.80;99.90
10245;DHT22;5167;52.164;10.530;2023-10-19T14:41:45;11.70;99.90
10245;DHT22;5167;52.164;10.530;2023-10-19T14:44:11;11.80;99.90
10245;DHT22;5167;52.164;10.530;2023-10-19T14:46:36;11.90;99.90
10245;DHT22;5167;52.164;10.530;2023-10-19T14:49:02;11.90;99.90
10245;DHT22;5167;52.164;10.530;2023-10-19T14:51:27;11.80;99.90
10245;DHT22;5167;52.164;10.530;2023-10-19T14:53:53;11.80;99.90
10245;DHT22;5167;52.164;10.530;2023-10-19T14:56:18;11.80;99.90
10245;DHT22;5167;52.164;10.530;2023-10-19T14:58:44;11.80;99.90
10245;DHT22;5167;52.164;10.530;2023-10-19T15:01:10;11.80;99.90
10245;DHT22;5167;52.164;10.530;2023-10-19T15:03:42;11.80;99.90
10245;DHT22;5167;52.164;10.530;2023-10-19T15:06:08;11.80;99.90
10245;DHT22;5167;52.164;10.530;2023-10-19T15:08:33;11.90;99.90
10245;DHT22;5167;52.164;10.530;2023-10-19T15:10:59;11.80;99.90
10245;DHT22;5167;52.164;10.530;2023-10-19T15:13:24;11.80;99.90
10245;DHT22;5167;52.164;10.530;2023-10-19T15:15:51;11.70;99.90
10245;DHT22;5167;52.164;10.530;2023-10-19T15:18:17;11.70;99.90
10245;DHT22;5167;52.164;10.530;2023-10-19T15:20:43;11.80;99.90
10245;DHT22;5167;52.164;10.530;2023-10-19T15:23:09;11.80;99.90
10245;DHT22;5167;52.164;10.530;2023-10-19T15:25:36;11.80;99.90
10245;DHT22;5167;52.164;10.530;2023-10-19T15:28:02;11.80;99.90
10245;DHT22;5167;52.164;10.530;2023-10-19T15:30:28;11.80;99.90
10245;DHT22;5167;52.164;10.530;2023-10-19T15:32:54;11.80;99.90
10245;DHT22;5167;52.164;10.530;2023-10-19T15:35:20;11.80;99.90
10245;DHT22;5167;52.164;10.530;2023-10-19T15:37:50;11.80;99.90
10245;DHT22;5167;52.164;10.530;2023-10-19T15:40:16;11.80;99.90
10245;DHT22;5167;52.164;10.530;2023-10-19T15:42:42;11.80;99.90
10245;DHT22;5167;52.164;10.530;2023-10-19T15:45:13;11.80;99.90
10245;DHT22;5167;52.164;10.530;2023-10-19T15:47:40;11.70;99.90
10245;DHT22;5167;52.164;10.530;2023-10-19T15:50:06;11.70;99.90
10245;DHT22;5167;52.164;10.530;2023-10-19T15:52:33;11.70;99.90
10245;DHT22;5167;52.164;10.530;2023-10-19T15:55:00;11.80;99.90